createdAt,value
2023-03-06T00:01:08.667Z,14.32
2023-03-06T00:06:06.037Z,14.48
2023-03-06T00:08:34.030Z,15.73
2023-03-06T00:11:01.862Z,16.80
2023-03-06T00:13:30.673Z,15.18
2023-03-06T00:16:00.488Z,16.42
2023-03-06T00:18:28.536Z,17.02
2023-03-06T00:20:56.355Z,14.98
2023-03-06T00:23:25.746Z,14.90
2023-03-06T00:25:53.625Z,15.68
2023-03-06T00:28:21.415Z,14.40
2023-03-06T00:30:49.240Z,17.00
2023-03-06T00:33:17.399Z,15.40
2023-03-06T00:35:45.246Z,15.88
2023-03-06T00:38:13.668Z,15.32
2023-03-06T00:40:43.032Z,16.27
2023-03-06T00:43:10.926Z,16.70
2023-03-06T00:45:38.900Z,15.55
2023-03-06T00:48:09.514Z,15.43
2023-03-06T00:50:37.585Z,15.52
2023-03-06T00:53:05.476Z,14.70
2023-03-06T00:55:33.636Z,13.60
2023-03-06T00:58:03.008Z,14.98
2023-03-06T01:00:30.879Z,15.98
2023-03-06T01:02:58.866Z,15.85
2023-03-06T01:05:26.749Z,16.38
2023-03-06T01:07:54.771Z,14.90
2023-03-06T01:10:22.872Z,16.83
2023-03-06T01:12:50.659Z,17.42
2023-03-06T01:15:21.724Z,17.58
2023-03-06T01:20:21.381Z,19.27
2023-03-06T01:22:49.256Z,20.73
2023-03-06T01:25:17.028Z,20.15
2023-03-06T01:27:44.788Z,22.23
2023-03-06T01:30:13.926Z,20.70
2023-03-06T01:32:43.444Z,21.15
2023-03-06T01:35:12.212Z,22.23
2023-03-06T01:37:40.596Z,21.15
2023-03-06T01:40:12.105Z,23.83
2023-03-06T01:42:40.033Z,23.80
2023-03-06T01:45:46.599Z,21.58
2023-03-06T01:48:16.132Z,22.30
2023-03-06T01:50:44.343Z,23.10
2023-03-06T01:53:13.996Z,22.25
2023-03-06T01:55:42.126Z,22.50
2023-03-06T01:58:13.903Z,23.05
2023-03-06T02:00:41.762Z,24.98
2023-03-06T02:03:13.449Z,26.70
2023-03-06T02:05:44.718Z,28.02
2023-03-06T02:08:15.904Z,26.95
2023-03-06T02:10:44.916Z,29.67
2023-03-06T02:13:12.650Z,28.85
2023-03-06T02:15:40.496Z,27.17
2023-03-06T02:18:08.501Z,27.90
2023-03-06T02:20:40.962Z,29.83
2023-03-06T02:23:15.884Z,26.45
2023-03-06T02:25:48.038Z,29.90
2023-03-06T02:28:18.530Z,28.00
2023-03-06T02:30:48.783Z,29.45
2023-03-06T02:33:18.276Z,29.67
2023-03-06T02:35:51.266Z,29.70
2023-03-06T02:38:22.034Z,29.00
2023-03-06T02:40:52.869Z,29.58
2023-03-06T02:43:25.455Z,30.30
2023-03-06T02:45:53.458Z,30.60
2023-03-06T02:48:22.083Z,29.80
2023-03-06T02:50:50.313Z,31.27
2023-03-06T02:53:20.338Z,28.80
2023-03-06T02:55:48.735Z,30.40
2023-03-06T02:58:20.580Z,31.20
2023-03-06T03:00:49.789Z,32.92
2023-03-06T03:03:18.537Z,29.00
2023-03-06T03:05:47.048Z,31.77
2023-03-06T03:08:24.706Z,31.65
2023-03-06T03:10:57.471Z,32.35
2023-03-06T03:13:28.525Z,34.58
2023-03-06T03:16:01.100Z,25.17
2023-03-06T03:18:29.382Z,34.60
2023-03-06T03:20:57.395Z,32.00
2023-03-06T03:23:25.676Z,31.25
2023-03-06T03:25:53.994Z,29.98
2023-03-06T03:28:22.303Z,33.95
2023-03-06T03:30:51.817Z,32.83
2023-03-06T03:33:19.975Z,34.43
2023-03-06T03:35:47.858Z,32.05
2023-03-06T03:38:17.213Z,35.30
2023-03-06T03:40:44.984Z,32.05
2023-03-06T03:43:13.154Z,30.20
2023-03-06T03:45:41.315Z,27.20
2023-03-06T03:48:10.506Z,27.05
2023-03-06T03:50:40.275Z,27.60
2023-03-06T03:53:08.419Z,28.88
2023-03-06T03:55:36.621Z,27.83
2023-03-06T03:58:05.578Z,28.17
2023-03-06T04:00:33.774Z,26.10
2023-03-06T04:03:11.817Z,25.60
2023-03-06T04:05:43.401Z,26.70
2023-03-06T04:08:14.204Z,23.85
2023-03-06T04:10:44.958Z,25.65
2023-03-06T04:13:15.441Z,25.10
2023-03-06T04:15:46.494Z,25.52
2023-03-06T04:18:16.570Z,28.38
2023-03-06T04:20:45.770Z,28.52
2023-03-06T04:23:14.425Z,27.58
2023-03-06T04:25:42.920Z,25.80
2023-03-06T04:28:13.358Z,26.48
2023-03-06T04:30:41.378Z,25.67
2023-03-06T04:33:10.398Z,24.85
2023-03-06T04:35:40.167Z,27.05
2023-03-06T04:38:14.186Z,25.77
2023-03-06T04:40:44.810Z,25.35
2023-03-06T04:43:13.063Z,25.13
2023-03-06T04:45:40.876Z,23.20
2023-03-06T04:48:09.092Z,25.73
2023-03-06T04:50:38.117Z,22.77
2023-03-06T04:53:08.605Z,23.13
2023-03-06T04:55:36.492Z,23.73
2023-03-06T04:58:04.477Z,25.10
2023-03-06T05:00:32.548Z,21.23
2023-03-06T05:03:01.736Z,23.10
2023-03-06T05:05:29.843Z,22.08
2023-03-06T05:07:57.992Z,20.85
2023-03-06T05:10:27.416Z,21.55
2023-03-06T05:12:55.187Z,25.25
2023-03-06T05:15:23.194Z,21.45
2023-03-06T05:17:51.162Z,22.88
2023-03-06T05:20:19.282Z,23.52
2023-03-06T05:22:47.361Z,23.13
2023-03-06T05:25:15.358Z,23.20
2023-03-06T05:27:44.569Z,22.60
2023-03-06T05:30:14.912Z,21.45
2023-03-06T05:32:42.921Z,21.60
2023-03-06T05:35:18.068Z,19.33
2023-03-06T05:37:45.894Z,19.35
2023-03-06T05:40:14.624Z,20.40
2023-03-06T05:42:43.959Z,20.98
2023-03-06T05:45:12.914Z,21.97
2023-03-06T05:47:40.809Z,21.00
2023-03-06T05:50:10.451Z,21.88
2023-03-06T05:52:39.526Z,22.02
2023-03-06T05:55:09.236Z,21.55
2023-03-06T05:57:36.996Z,20.67
2023-03-06T06:00:07.997Z,20.30
2023-03-06T06:02:40.492Z,21.23
2023-03-06T06:05:11.322Z,20.27
2023-03-06T06:07:40.900Z,20.65
2023-03-06T06:10:10.232Z,24.92
2023-03-06T06:12:38.281Z,23.17
2023-03-06T06:15:08.700Z,21.17
2023-03-06T06:17:36.572Z,22.05
2023-03-06T06:20:05.183Z,20.73
2023-03-06T06:22:32.939Z,19.77
2023-03-06T06:25:00.708Z,19.20
2023-03-06T06:27:28.539Z,20.48
2023-03-06T06:29:56.387Z,17.05
2023-03-06T06:32:25.702Z,18.65
2023-03-06T06:34:53.563Z,19.83
2023-03-06T06:37:21.328Z,18.50
2023-03-06T06:39:49.250Z,16.20
2023-03-06T06:42:38.890Z,16.38
2023-03-06T06:45:06.157Z,16.58
2023-03-06T06:47:38.577Z,17.00
2023-03-06T06:50:07.725Z,16.67
2023-03-06T06:52:35.642Z,15.95
2023-03-06T06:55:03.704Z,16.65
2023-03-06T06:57:31.940Z,15.50
2023-03-06T06:59:59.875Z,16.88
2023-03-06T07:02:27.771Z,17.40
2023-03-06T07:05:04.146Z,16.45
2023-03-06T07:07:35.429Z,16.25
2023-03-06T07:12:32.909Z,15.95
2023-03-06T07:15:00.715Z,15.90
2023-03-06T07:17:28.558Z,14.07
2023-03-06T07:19:57.874Z,12.98
2023-03-06T07:22:25.683Z,11.87
2023-03-06T07:24:53.480Z,12.63
2023-03-06T07:27:23.792Z,14.45
2023-03-06T07:29:51.766Z,13.70
2023-03-06T07:32:20.705Z,13.82
2023-03-06T07:34:48.920Z,11.60
2023-03-06T07:37:18.305Z,12.68
2023-03-06T07:39:46.198Z,13.90
2023-03-06T07:42:15.153Z,12.60
2023-03-06T07:44:53.966Z,13.52
2023-03-06T07:47:21.796Z,12.13
2023-03-06T07:49:49.529Z,11.75
2023-03-06T07:52:18.889Z,11.55
2023-03-06T07:54:46.708Z,12.13
2023-03-06T07:57:14.908Z,11.40
2023-03-06T07:59:42.943Z,11.90
2023-03-06T08:02:11.899Z,12.18
2023-03-06T08:04:40.225Z,11.30
2023-03-06T08:07:08.071Z,12.40
2023-03-06T08:09:37.552Z,11.18
2023-03-06T08:12:05.510Z,12.98
2023-03-06T08:14:35.583Z,13.70
2023-03-06T08:17:03.710Z,12.38
2023-03-06T08:19:31.538Z,13.27
2023-03-06T08:21:59.536Z,12.13
2023-03-06T08:24:27.439Z,14.60
2023-03-06T08:26:56.786Z,16.42
2023-03-06T08:29:24.683Z,15.10
2023-03-06T08:31:52.568Z,14.50
2023-03-06T08:34:24.189Z,15.65
2023-03-06T08:36:52.589Z,14.32
2023-03-06T08:39:21.190Z,14.98
2023-03-06T08:41:48.957Z,15.48
2023-03-06T08:44:18.227Z,16.15
2023-03-06T08:46:46.082Z,15.43
2023-03-06T08:49:14.425Z,16.48
2023-03-06T08:51:42.457Z,16.63
2023-03-06T08:54:13.211Z,18.23
2023-03-06T08:56:41.208Z,18.75
2023-03-06T08:59:10.488Z,18.23
2023-03-06T09:01:40.904Z,18.02
2023-03-06T09:04:11.752Z,18.80
2023-03-06T09:06:43.375Z,18.75
2023-03-06T09:09:12.042Z,17.35
2023-03-06T09:11:40.451Z,17.40
2023-03-06T09:14:08.571Z,18.40
2023-03-06T09:16:36.682Z,16.67
2023-03-06T09:19:06.123Z,19.27
2023-03-06T09:21:34.028Z,17.05
2023-03-06T09:24:01.852Z,17.05
2023-03-06T09:26:43.478Z,17.55
2023-03-06T09:29:13.418Z,16.10
2023-03-06T09:31:41.576Z,14.85
2023-03-06T09:34:10.720Z,15.85
2023-03-06T09:36:54.907Z,13.25
2023-03-06T09:39:24.918Z,13.77
2023-03-06T09:41:53.654Z,12.38
2023-03-06T09:44:23.636Z,13.57
2023-03-06T09:47:14.538Z,11.73
2023-03-06T09:50:01.729Z,12.60
2023-03-06T09:52:38.526Z,11.50
2023-03-06T09:55:13.402Z,11.52
2023-03-06T09:57:46.234Z,12.70
2023-03-06T10:00:18.051Z,10.40
2023-03-06T10:02:49.090Z,10.95
2023-03-06T10:05:22.693Z,11.23
2023-03-06T10:07:55.103Z,10.60
2023-03-06T10:10:26.115Z,10.20
2023-03-06T10:13:01.480Z,10.05
2023-03-06T10:15:33.909Z,11.00
2023-03-06T10:18:03.129Z,11.35
2023-03-06T10:20:37.995Z,10.70
2023-03-06T10:23:30.051Z,10.35
2023-03-06T10:26:01.642Z,12.27
2023-03-06T10:28:32.767Z,11.60
2023-03-06T10:31:06.961Z,13.68
2023-03-06T10:33:50.836Z,13.45
2023-03-06T10:36:22.511Z,12.05
2023-03-06T10:38:50.642Z,11.95
2023-03-06T10:41:24.933Z,11.45
2023-03-06T10:44:35.488Z,11.45
2023-03-06T10:47:27.478Z,10.00
2023-03-06T10:50:01.005Z,10.82
2023-03-06T10:52:32.876Z,11.10
2023-03-06T10:55:23.789Z,10.63
2023-03-06T10:57:51.941Z,11.35
2023-03-06T11:00:36.004Z,11.23
2023-03-06T11:03:18.041Z,10.27
2023-03-06T11:05:59.237Z,10.60
2023-03-06T11:08:29.257Z,10.40
2023-03-06T11:11:02.315Z,10.18
2023-03-06T11:13:32.238Z,10.35
2023-03-06T11:16:03.962Z,10.48
2023-03-06T11:18:41.165Z,10.85
2023-03-06T11:21:30.387Z,11.82
2023-03-06T11:24:05.344Z,11.98
2023-03-06T11:26:39.284Z,10.43
2023-03-06T11:29:16.955Z,9.50
2023-03-06T11:31:51.548Z,11.15
2023-03-06T11:34:25.568Z,11.07
2023-03-06T11:36:57.980Z,10.38
2023-03-06T11:39:36.087Z,11.30
2023-03-06T11:42:10.950Z,10.82
2023-03-06T11:44:52.921Z,11.80
2023-03-06T11:47:24.597Z,9.15
2023-03-06T11:50:01.885Z,9.25
2023-03-06T11:52:43.067Z,8.20
2023-03-06T11:55:18.313Z,8.98
2023-03-06T11:57:52.334Z,7.90
2023-03-06T12:00:30.567Z,9.40
2023-03-06T12:03:30.283Z,8.55
2023-03-06T12:06:04.126Z,7.03
2023-03-06T12:08:51.902Z,5.93
2023-03-06T12:11:25.455Z,5.75
2023-03-06T12:14:08.063Z,5.95
2023-03-06T12:16:58.592Z,5.13
2023-03-06T12:19:39.038Z,5.00
2023-03-06T12:22:22.493Z,4.18
2023-03-06T12:25:07.965Z,4.97
2023-03-06T12:27:46.075Z,4.90
2023-03-06T12:30:30.092Z,4.80
2023-03-06T12:33:06.304Z,5.63
2023-03-06T12:35:51.656Z,5.38
2023-03-06T12:38:49.995Z,5.00
2023-03-06T12:41:28.229Z,3.72
2023-03-06T12:44:18.612Z,4.80
2023-03-06T12:46:50.577Z,4.43
2023-03-06T12:49:31.957Z,4.40
2023-03-06T12:52:02.256Z,4.53
2023-03-06T12:54:34.741Z,3.67
2023-03-06T12:57:02.835Z,5.50
2023-03-06T12:59:42.972Z,5.28
2023-03-06T13:05:30.913Z,5.95
2023-03-06T13:08:14.229Z,6.85
2023-03-06T13:10:44.884Z,6.32
2023-03-06T13:13:32.819Z,5.53
2023-03-06T13:16:14.786Z,6.53
2023-03-06T13:18:55.496Z,6.72
2023-03-06T13:21:46.445Z,6.47
2023-03-06T13:24:21.157Z,7.25
2023-03-06T13:27:01.322Z,7.35
2023-03-06T13:30:06.621Z,8.65
2023-03-06T13:32:37.211Z,7.82
2023-03-06T13:35:52.881Z,7.40
2023-03-06T13:38:59.774Z,7.68
2023-03-06T13:41:37.650Z,6.53
2023-03-06T13:44:49.575Z,6.20
2023-03-06T13:48:01.374Z,7.10
2023-03-06T13:50:37.994Z,5.68
2023-03-06T13:53:30.924Z,5.65
2023-03-06T13:56:11.084Z,5.43
2023-03-06T13:58:53.217Z,5.45
2023-03-06T14:01:37.002Z,5.20
2023-03-06T14:04:34.607Z,6.13
2023-03-06T14:07:19.150Z,5.05
2023-03-06T14:09:48.826Z,3.50
2023-03-06T14:12:23.628Z,2.83
2023-03-06T14:14:56.988Z,3.28
2023-03-06T14:17:29.737Z,4.03
2023-03-06T14:20:01.861Z,2.47
2023-03-06T14:22:29.965Z,2.15
2023-03-06T14:25:01.959Z,1.70
2023-03-06T14:27:42.899Z,1.88
2023-03-06T14:30:15.972Z,2.28
2023-03-06T14:32:44.638Z,2.33
2023-03-06T14:35:29.552Z,2.10
2023-03-06T14:38:04.939Z,2.40
2023-03-06T14:40:35.995Z,2.30
2023-03-06T14:43:24.607Z,2.47
2023-03-06T14:45:57.918Z,2.30
2023-03-06T14:48:28.045Z,2.80
2023-03-06T14:50:58.634Z,1.95
2023-03-06T14:53:29.226Z,2.58
2023-03-06T14:56:00.297Z,1.95
2023-03-06T14:58:32.649Z,2.28
2023-03-06T15:01:06.470Z,1.88
2023-03-06T15:03:45.226Z,2.63
2023-03-06T15:06:18.262Z,2.28
2023-03-06T15:08:48.663Z,1.83
2023-03-06T15:11:16.689Z,3.20
2023-03-06T15:14:00.784Z,1.75
2023-03-06T15:16:30.370Z,2.25
2023-03-06T15:19:00.191Z,2.13
2023-03-06T15:21:38.910Z,2.10
2023-03-06T15:24:34.644Z,1.67
2023-03-06T15:27:04.548Z,1.83
2023-03-06T15:29:33.102Z,2.08
2023-03-06T15:32:32.329Z,1.98
2023-03-06T15:35:32.761Z,1.55
2023-03-06T15:38:03.649Z,2.20
2023-03-06T15:40:32.903Z,2.20
2023-03-06T15:43:01.039Z,2.05
2023-03-06T15:45:31.894Z,2.05
2023-03-06T15:47:59.732Z,1.85
2023-03-06T15:50:30.259Z,2.53
2023-03-06T15:52:58.384Z,2.72
2023-03-06T15:55:27.850Z,2.40
2023-03-06T15:57:59.547Z,2.20
2023-03-06T16:00:29.489Z,2.83
2023-03-06T16:02:58.325Z,2.13
2023-03-06T16:05:29.429Z,4.57
2023-03-06T16:07:58.974Z,4.00
2023-03-06T16:10:30.793Z,4.10
2023-03-06T16:13:02.980Z,4.00
2023-03-06T16:15:33.118Z,5.22
2023-03-06T16:18:01.284Z,4.28
2023-03-06T16:20:30.380Z,3.70
2023-03-06T16:22:58.287Z,4.20
2023-03-06T16:25:29.407Z,4.18
2023-03-06T16:27:59.486Z,6.72
2023-03-06T16:30:29.387Z,5.70
2023-03-06T16:32:57.876Z,6.25
2023-03-06T16:35:26.735Z,14.07
2023-03-06T16:37:54.979Z,14.88
2023-03-06T16:40:25.333Z,52.40
2023-03-06T16:42:55.271Z,17.05
2023-03-06T16:45:24.996Z,11.93
2023-03-06T16:47:53.133Z,23.63
2023-03-06T16:50:25.447Z,24.42
2023-03-06T16:52:54.819Z,9.18
2023-03-06T16:55:23.268Z,9.60
2023-03-06T16:57:51.503Z,8.02
2023-03-06T17:00:22.525Z,6.38
2023-03-06T17:02:50.903Z,7.93
2023-03-06T17:05:19.893Z,5.80
2023-03-06T17:07:47.910Z,4.05
2023-03-06T17:10:17.754Z,5.10
2023-03-06T17:12:45.855Z,4.38
2023-03-06T17:15:13.741Z,4.35
2023-03-06T17:17:43.033Z,4.03
2023-03-06T17:20:13.724Z,4.53
2023-03-06T17:22:42.027Z,4.88
2023-03-06T17:25:10.730Z,4.80
2023-03-06T17:27:39.112Z,4.93
2023-03-06T17:30:08.377Z,5.38
2023-03-06T17:32:36.350Z,5.82
2023-03-06T17:35:06.596Z,6.88
2023-03-06T17:40:02.267Z,6.13
2023-03-06T17:42:30.087Z,5.75
2023-03-06T17:44:57.933Z,5.50
2023-03-06T17:47:25.808Z,5.03
2023-03-06T17:49:53.987Z,5.13
2023-03-06T17:52:23.313Z,5.20
2023-03-06T17:54:51.304Z,5.50
2023-03-06T17:57:19.084Z,5.93
2023-03-06T17:59:48.627Z,5.35
2023-03-06T18:02:16.609Z,4.80
2023-03-06T18:04:44.593Z,6.38
2023-03-06T18:07:12.412Z,5.97
2023-03-06T18:09:43.865Z,6.40
2023-03-06T18:12:12.374Z,6.18
2023-03-06T18:14:40.232Z,6.10
2023-03-06T18:17:08.119Z,6.57
2023-03-06T18:19:36.219Z,6.63
2023-03-06T18:22:03.952Z,8.68
2023-03-06T18:24:31.744Z,10.05
2023-03-06T18:27:01.197Z,11.55
2023-03-06T18:29:29.084Z,10.43
2023-03-06T18:31:59.128Z,9.95
2023-03-06T18:34:27.308Z,9.75
2023-03-06T18:36:55.186Z,9.90
2023-03-06T18:39:23.106Z,8.77
2023-03-06T18:41:51.740Z,9.63
2023-03-06T18:44:21.164Z,9.73
2023-03-06T18:46:49.102Z,9.60
2023-03-06T18:49:17.188Z,9.15
2023-03-06T18:51:45.011Z,9.85
2023-03-06T18:54:12.984Z,10.10
2023-03-06T18:56:44.094Z,11.02
2023-03-06T18:59:16.423Z,10.82
2023-03-06T19:01:47.557Z,11.32
2023-03-06T19:04:15.500Z,10.48
2023-03-06T19:06:43.489Z,12.02
2023-03-06T19:09:11.697Z,10.52
2023-03-06T19:11:39.544Z,10.35
2023-03-06T19:14:07.907Z,14.68
2023-03-06T19:16:35.964Z,12.25
2023-03-06T19:19:05.301Z,15.43
2023-03-06T19:21:33.459Z,15.70
2023-03-06T19:24:02.960Z,16.77
2023-03-06T19:26:31.377Z,15.45
2023-03-06T19:28:59.668Z,14.35
2023-03-06T19:31:29.396Z,11.18
2023-03-06T19:33:58.075Z,12.68
2023-03-06T19:36:33.455Z,11.93
2023-03-06T19:39:04.693Z,13.88
2023-03-06T19:41:32.776Z,12.00
2023-03-06T19:44:03.356Z,11.02
2023-03-06T19:46:31.706Z,15.25
2023-03-06T19:49:01.035Z,17.55
2023-03-06T19:51:30.932Z,29.73
2023-03-06T19:53:58.785Z,18.95
2023-03-06T19:56:29.057Z,21.13
2023-03-06T19:58:57.552Z,19.67
2023-03-06T20:01:28.006Z,19.42
2023-03-06T20:03:58.666Z,18.65
2023-03-06T20:06:28.933Z,21.23
2023-03-06T20:08:58.194Z,18.52
2023-03-06T20:11:29.801Z,18.47
2023-03-06T20:13:59.642Z,18.30
2023-03-06T20:16:28.918Z,19.73
2023-03-06T20:18:58.930Z,20.20
2023-03-06T20:21:27.415Z,20.45
2023-03-06T20:23:56.984Z,18.83
2023-03-06T20:26:28.260Z,19.27
2023-03-06T20:28:56.864Z,15.55
2023-03-06T20:31:26.991Z,13.98
2023-03-06T20:36:27.672Z,16.73
2023-03-06T20:38:55.630Z,22.35
2023-03-06T20:41:27.569Z,26.60
2023-03-06T20:43:55.789Z,24.77
2023-03-06T20:46:24.748Z,23.83
2023-03-06T20:48:54.109Z,22.55
2023-03-06T20:51:23.985Z,23.42
2023-03-06T20:53:54.242Z,21.70
2023-03-06T20:58:52.384Z,22.75
2023-03-06T21:01:21.212Z,24.40
2023-03-06T21:03:49.674Z,22.80
2023-03-06T21:06:18.183Z,22.67
2023-03-06T21:08:46.232Z,22.65
2023-03-06T21:11:14.421Z,24.05
2023-03-06T21:13:42.423Z,22.90
2023-03-06T21:16:14.321Z,24.20
2023-03-06T21:18:42.528Z,25.38
2023-03-06T21:21:12.561Z,23.90
2023-03-06T21:23:40.713Z,24.38
2023-03-06T21:26:08.650Z,22.40
2023-03-06T21:28:36.700Z,22.40
2023-03-06T21:31:08.448Z,28.58
2023-03-06T21:33:38.487Z,26.00
2023-03-06T21:36:07.693Z,25.55
2023-03-06T21:38:36.680Z,25.55
2023-03-06T21:41:08.994Z,23.65
2023-03-06T21:43:36.884Z,26.02
2023-03-06T21:46:04.877Z,25.90
2023-03-06T21:48:33.170Z,27.55
2023-03-06T21:51:10.868Z,25.02
2023-03-06T21:53:40.965Z,25.38
2023-03-06T21:56:09.793Z,23.90
2023-03-06T21:58:38.383Z,25.80
2023-03-06T22:01:10.977Z,25.10
2023-03-06T22:03:39.529Z,25.00
2023-03-06T22:06:13.935Z,25.42
2023-03-06T22:08:42.578Z,26.80
2023-03-06T22:11:12.501Z,25.85
2023-03-06T22:13:41.194Z,25.50
2023-03-06T22:16:09.756Z,27.08
2023-03-06T22:18:38.173Z,25.42
2023-03-06T22:21:09.751Z,24.80
2023-03-06T22:23:40.286Z,25.92
2023-03-06T22:26:11.302Z,25.98
2023-03-06T22:28:39.482Z,26.35
2023-03-06T22:31:08.953Z,25.70
2023-03-06T22:33:37.025Z,26.88
2023-03-06T22:36:07.679Z,26.15
2023-03-06T22:38:36.791Z,26.55
2023-03-06T22:41:06.925Z,25.42
2023-03-06T22:46:03.961Z,25.30
2023-03-06T22:48:32.392Z,26.92
2023-03-06T22:51:04.499Z,25.80
2023-03-06T22:53:32.875Z,26.15
2023-03-06T22:56:01.270Z,25.90
2023-03-06T22:58:34.410Z,29.40
2023-03-06T23:01:08.488Z,28.88
2023-03-06T23:03:37.582Z,27.75
2023-03-06T23:06:10.604Z,29.00
2023-03-06T23:08:39.324Z,29.05
2023-03-06T23:11:09.943Z,29.35
2023-03-06T23:13:58.714Z,30.20
2023-03-06T23:16:45.239Z,29.00
2023-03-06T23:19:31.927Z,29.48
2023-03-06T23:22:18.397Z,28.40
2023-03-06T23:25:05.971Z,29.25
2023-03-06T23:27:33.793Z,30.83
2023-03-06T23:30:03.600Z,29.95
2023-03-06T23:32:32.897Z,28.88
2023-03-06T23:35:01.572Z,23.97
2023-03-06T23:37:29.602Z,30.05
2023-03-06T23:39:57.707Z,30.60
2023-03-06T23:42:25.563Z,29.13
2023-03-06T23:44:53.337Z,29.60
2023-03-06T23:47:22.610Z,28.65
2023-03-06T23:49:50.507Z,31.27
2023-03-06T23:52:18.691Z,28.27
2023-03-06T23:54:49.670Z,27.33
2023-03-06T23:57:17.578Z,52.90
2023-03-06T23:59:45.545Z,32.08
